createdAt,value
2022-10-31T00:01:18.172Z,7.40
2022-10-31T00:03:45.093Z,7.40
2022-10-31T00:06:12.061Z,7.40
2022-10-31T00:08:39.212Z,7.40
2022-10-31T00:11:10.448Z,7.40
2022-10-31T00:13:37.289Z,7.40
2022-10-31T00:16:04.352Z,7.40
2022-10-31T00:18:31.254Z,7.40
2022-10-31T00:21:05.021Z,7.40
2022-10-31T00:23:32.311Z,7.40
2022-10-31T00:26:04.201Z,7.40
2022-10-31T00:28:31.616Z,7.40
2022-10-31T00:31:02.475Z,7.40
2022-10-31T00:33:29.801Z,7.40
2022-10-31T00:35:57.138Z,7.40
2022-10-31T00:38:24.093Z,7.40
2022-10-31T00:40:51.072Z,7.40
2022-10-31T00:43:17.995Z,7.40
2022-10-31T00:45:45.105Z,7.50
2022-10-31T00:48:12.309Z,7.40
2022-10-31T00:50:39.909Z,7.40
2022-10-31T00:53:07.229Z,7.40
2022-10-31T00:55:34.401Z,7.40
2022-10-31T00:58:01.881Z,7.40
2022-10-31T01:00:29.158Z,7.40
2022-10-31T01:02:56.857Z,7.40
2022-10-31T01:05:23.879Z,7.40
2022-10-31T01:07:50.931Z,7.40
2022-10-31T01:10:19.017Z,7.40
2022-10-31T01:12:47.287Z,7.40
2022-10-31T01:15:18.948Z,7.40
2022-10-31T01:17:45.938Z,7.40
2022-10-31T01:20:14.945Z,7.50
2022-10-31T01:22:41.910Z,7.50
2022-10-31T01:25:10.043Z,7.50
2022-10-31T01:27:37.277Z,7.40
2022-10-31T01:30:07.441Z,7.40
2022-10-31T01:32:34.288Z,7.40
2022-10-31T01:35:01.390Z,7.40
2022-10-31T01:37:28.622Z,7.40
2022-10-31T01:39:55.452Z,7.40
2022-10-31T01:42:23.754Z,7.40
2022-10-31T01:44:55.586Z,7.40
2022-10-31T01:47:38.427Z,7.40
2022-10-31T01:50:12.156Z,7.40
2022-10-31T01:52:46.759Z,7.40
2022-10-31T01:55:29.992Z,7.30
2022-10-31T01:58:03.038Z,7.30
2022-10-31T02:00:31.324Z,7.30
2022-10-31T02:02:58.572Z,7.30
2022-10-31T02:05:28.761Z,7.20
2022-10-31T02:08:01.707Z,7.20
2022-10-31T02:10:32.456Z,7.20
2022-10-31T02:13:02.546Z,7.10
2022-10-31T02:15:31.842Z,7.10
2022-10-31T02:17:59.463Z,7.10
2022-10-31T02:20:54.995Z,7.10
2022-10-31T02:23:45.148Z,7.10
2022-10-31T02:26:24.045Z,7.20
2022-10-31T02:29:09.039Z,7.20
2022-10-31T02:31:38.701Z,7.10
2022-10-31T02:34:23.997Z,7.10
2022-10-31T02:37:02.682Z,7.10
2022-10-31T02:39:45.705Z,7.10
2022-10-31T02:42:32.120Z,7.00
2022-10-31T02:45:25.319Z,7.00
2022-10-31T02:47:56.104Z,7.00
2022-10-31T02:50:28.242Z,7.00
2022-10-31T02:52:55.208Z,7.00
2022-10-31T02:55:27.974Z,7.10
2022-10-31T02:58:10.536Z,7.10
2022-10-31T03:00:53.041Z,7.00
2022-10-31T03:03:27.576Z,7.00
2022-10-31T03:06:21.533Z,7.10
2022-10-31T03:09:12.398Z,7.00
2022-10-31T03:11:58.707Z,6.90
2022-10-31T03:14:39.803Z,6.90
2022-10-31T03:17:12.345Z,6.80
2022-10-31T03:19:44.176Z,6.80
2022-10-31T03:22:18.759Z,6.80
2022-10-31T03:24:47.539Z,6.80
2022-10-31T03:27:18.169Z,6.80
2022-10-31T03:29:46.158Z,6.80
2022-10-31T03:32:23.457Z,6.80
2022-10-31T03:34:54.373Z,6.70
2022-10-31T03:37:23.873Z,6.70
2022-10-31T03:39:51.140Z,6.80
2022-10-31T03:42:31.481Z,6.80
2022-10-31T03:45:07.484Z,6.80
2022-10-31T03:47:37.034Z,6.80
2022-10-31T03:50:05.750Z,6.80
2022-10-31T03:52:58.825Z,6.80
2022-10-31T03:55:32.143Z,6.80
2022-10-31T03:58:27.127Z,6.70
2022-10-31T04:00:58.471Z,6.70
2022-10-31T04:03:29.713Z,6.70
2022-10-31T04:06:02.972Z,6.70
2022-10-31T04:08:33.881Z,6.60
2022-10-31T04:11:03.593Z,6.60
2022-10-31T04:13:34.825Z,6.60
2022-10-31T04:16:12.638Z,6.50
2022-10-31T04:18:43.173Z,6.40
2022-10-31T04:21:12.477Z,6.40
2022-10-31T04:23:39.303Z,6.40
2022-10-31T04:26:16.642Z,6.40
2022-10-31T04:28:44.644Z,6.30
2022-10-31T04:31:13.337Z,6.30
2022-10-31T04:33:41.200Z,6.20
2022-10-31T04:36:08.412Z,6.20
2022-10-31T04:38:35.366Z,6.10
2022-10-31T04:41:06.118Z,6.10
2022-10-31T04:44:02.192Z,6.00
2022-10-31T04:46:29.249Z,6.00
2022-10-31T04:48:58.074Z,6.00
2022-10-31T04:51:25.094Z,6.00
2022-10-31T04:53:52.704Z,6.00
2022-10-31T04:56:39.983Z,5.90
2022-10-31T04:59:14.052Z,6.00
2022-10-31T05:01:54.467Z,5.90
2022-10-31T05:04:28.661Z,5.90
2022-10-31T05:06:55.552Z,6.00
2022-10-31T05:09:22.477Z,6.00
2022-10-31T05:11:49.269Z,6.00
2022-10-31T05:14:32.960Z,6.00
2022-10-31T05:17:18.360Z,5.90
2022-10-31T05:20:05.644Z,5.90
2022-10-31T05:23:03.806Z,5.80
2022-10-31T05:25:31.090Z,5.80
2022-10-31T05:27:58.982Z,5.80
2022-10-31T05:30:29.368Z,5.80
2022-10-31T05:32:56.663Z,5.80
2022-10-31T05:35:55.861Z,5.80
2022-10-31T05:38:45.532Z,5.80
2022-10-31T05:41:20.560Z,5.80
2022-10-31T05:43:48.215Z,5.80
2022-10-31T05:46:17.463Z,5.80
2022-10-31T05:49:07.069Z,5.80
2022-10-31T05:51:53.156Z,5.70
2022-10-31T05:54:24.820Z,5.70
2022-10-31T05:56:51.763Z,5.70
2022-10-31T05:59:18.838Z,5.60
2022-10-31T06:01:45.824Z,5.60
2022-10-31T06:04:32.120Z,5.60
2022-10-31T06:06:59.391Z,5.50
2022-10-31T06:09:26.413Z,5.60
2022-10-31T06:11:53.252Z,5.50
2022-10-31T06:14:23.007Z,5.50
2022-10-31T06:16:57.794Z,5.40
2022-10-31T06:19:53.548Z,5.40
2022-10-31T06:22:24.773Z,5.30
2022-10-31T06:24:52.313Z,5.40
2022-10-31T06:27:41.421Z,5.30
2022-10-31T06:30:14.114Z,5.20
2022-10-31T06:32:41.095Z,5.10
2022-10-31T06:35:09.936Z,5.10
2022-10-31T06:37:37.198Z,5.10
2022-10-31T06:40:16.821Z,5.00
2022-10-31T06:43:06.509Z,4.90
2022-10-31T06:45:33.475Z,4.90
2022-10-31T06:48:21.717Z,4.80
2022-10-31T06:51:16.293Z,4.80
2022-10-31T06:53:43.221Z,4.80
2022-10-31T06:56:12.124Z,4.80
2022-10-31T06:58:47.324Z,4.70
2022-10-31T07:01:14.645Z,4.70
2022-10-31T07:03:41.697Z,4.80
2022-10-31T07:06:08.640Z,4.80
2022-10-31T07:08:35.527Z,4.80
2022-10-31T07:11:02.489Z,4.90
2022-10-31T07:13:30.602Z,4.90
2022-10-31T07:16:07.651Z,4.90
2022-10-31T07:18:37.037Z,4.90
2022-10-31T07:21:04.568Z,4.90
2022-10-31T07:23:32.049Z,5.00
2022-10-31T07:26:37.154Z,5.00
2022-10-31T07:29:04.020Z,5.00
2022-10-31T07:31:30.858Z,5.10
2022-10-31T07:34:04.007Z,5.10
2022-10-31T07:36:46.029Z,5.10
2022-10-31T07:39:13.956Z,5.10
2022-10-31T07:41:41.578Z,5.10
2022-10-31T07:44:09.963Z,5.10
2022-10-31T07:46:55.429Z,5.20
2022-10-31T07:49:40.908Z,5.30
2022-10-31T07:52:26.574Z,5.30
2022-10-31T07:55:12.710Z,5.30
2022-10-31T07:57:39.629Z,5.30
2022-10-31T08:00:09.658Z,5.40
2022-10-31T08:02:41.910Z,5.50
2022-10-31T08:05:47.313Z,5.50
2022-10-31T08:08:32.210Z,5.50
2022-10-31T08:11:02.453Z,5.50
2022-10-31T08:13:30.490Z,5.60
2022-10-31T08:16:04.424Z,5.60
2022-10-31T08:18:33.724Z,5.70
2022-10-31T08:21:00.656Z,5.80
2022-10-31T08:23:27.486Z,5.90
2022-10-31T08:25:55.512Z,5.90
2022-10-31T08:28:23.302Z,6.10
2022-10-31T08:30:51.738Z,6.20
2022-10-31T08:33:37.417Z,6.30
2022-10-31T08:36:20.498Z,6.20
2022-10-31T08:39:06.004Z,6.30
2022-10-31T08:41:32.966Z,6.30
2022-10-31T08:44:00.957Z,6.40
2022-10-31T08:46:27.897Z,6.60
2022-10-31T08:48:54.813Z,6.70
2022-10-31T08:51:21.694Z,6.70
2022-10-31T08:53:52.424Z,6.80
2022-10-31T08:56:57.850Z,7.10
2022-10-31T08:59:35.545Z,7.60
2022-10-31T09:02:20.932Z,7.90
2022-10-31T09:04:50.030Z,8.20
2022-10-31T09:07:21.530Z,8.40
2022-10-31T09:09:49.419Z,8.50
2022-10-31T09:12:17.981Z,8.60
2022-10-31T09:15:07.932Z,8.70
2022-10-31T09:17:40.200Z,9.00
2022-10-31T09:20:30.368Z,9.10
2022-10-31T09:23:13.041Z,9.20
2022-10-31T09:25:41.782Z,9.10
2022-10-31T09:28:29.176Z,9.20
2022-10-31T09:31:00.685Z,9.50
2022-10-31T09:33:59.992Z,9.70
2022-10-31T09:36:36.023Z,9.90
2022-10-31T09:39:04.686Z,10.10
2022-10-31T09:41:57.918Z,10.20
2022-10-31T09:44:38.055Z,10.40
2022-10-31T09:47:43.445Z,10.50
2022-10-31T09:50:37.959Z,10.70
2022-10-31T09:54:02.036Z,10.70
2022-10-31T09:56:33.023Z,10.80
2022-10-31T09:59:03.213Z,10.90
2022-10-31T10:02:02.618Z,11.00
2022-10-31T10:04:45.510Z,11.10
2022-10-31T10:07:49.311Z,11.20
2022-10-31T10:10:46.796Z,11.20
2022-10-31T10:13:58.798Z,11.30
2022-10-31T10:16:47.041Z,11.50
2022-10-31T10:19:39.400Z,11.60
2022-10-31T10:22:16.792Z,11.70
2022-10-31T10:25:01.756Z,11.80
2022-10-31T10:28:05.711Z,12.10
2022-10-31T10:30:42.936Z,12.20
2022-10-31T10:33:15.499Z,12.40
2022-10-31T10:35:49.121Z,12.40
2022-10-31T10:38:27.820Z,12.40
2022-10-31T10:40:55.468Z,12.50
2022-10-31T10:43:32.165Z,12.60
2022-10-31T10:46:39.124Z,12.60
2022-10-31T10:49:05.876Z,12.70
2022-10-31T10:54:41.371Z,12.80
2022-10-31T10:57:19.195Z,12.80
2022-10-31T10:59:47.407Z,12.90
2022-10-31T11:02:18.462Z,13.00
2022-10-31T11:04:50.481Z,13.00
2022-10-31T11:07:17.402Z,13.00
2022-10-31T11:09:44.298Z,13.10
2022-10-31T11:12:18.516Z,13.10
2022-10-31T11:15:00.497Z,13.10
2022-10-31T11:17:27.406Z,13.10
2022-10-31T11:20:21.563Z,13.20
2022-10-31T11:22:49.484Z,13.20
2022-10-31T11:25:24.620Z,13.30
2022-10-31T11:28:06.927Z,13.30
2022-10-31T11:30:44.297Z,13.30
2022-10-31T11:33:31.277Z,13.20
2022-10-31T11:35:59.379Z,13.30
2022-10-31T11:38:36.484Z,13.30
2022-10-31T11:41:34.336Z,13.30
2022-10-31T11:44:14.381Z,13.40
2022-10-31T11:46:54.371Z,13.40
2022-10-31T11:49:33.252Z,13.50
2022-10-31T11:52:07.097Z,13.60
2022-10-31T11:55:01.953Z,13.60
2022-10-31T11:57:34.146Z,13.70
2022-10-31T12:00:07.005Z,13.80
2022-10-31T12:02:39.662Z,13.90
2022-10-31T12:05:19.570Z,13.90
2022-10-31T12:07:46.692Z,14.00
2022-10-31T12:10:14.677Z,14.00
2022-10-31T12:12:51.181Z,14.00
2022-10-31T12:15:34.569Z,14.00
2022-10-31T12:18:23.318Z,14.10
2022-10-31T12:20:50.207Z,14.20
2022-10-31T12:23:24.013Z,14.20
2022-10-31T12:26:03.804Z,14.30
2022-10-31T12:28:57.567Z,14.30
2022-10-31T12:31:48.315Z,14.40
2022-10-31T12:34:36.349Z,14.40
2022-10-31T12:37:36.986Z,14.40
2022-10-31T12:40:12.557Z,14.30
2022-10-31T12:42:48.530Z,14.20
2022-10-31T12:46:14.105Z,14.10
2022-10-31T12:48:53.984Z,14.10
2022-10-31T12:51:45.006Z,14.10
2022-10-31T12:54:33.499Z,14.10
2022-10-31T12:57:41.705Z,14.10
2022-10-31T13:00:17.565Z,14.10
2022-10-31T13:02:54.110Z,14.10
2022-10-31T13:05:21.339Z,14.10
2022-10-31T13:08:18.306Z,14.10
2022-10-31T13:10:53.403Z,14.10
2022-10-31T13:13:33.989Z,14.00
2022-10-31T13:16:07.081Z,14.00
2022-10-31T13:18:40.715Z,14.00
2022-10-31T13:21:28.565Z,14.10
2022-10-31T13:23:58.903Z,14.10
2022-10-31T13:26:39.440Z,14.10
2022-10-31T13:29:32.677Z,14.10
2022-10-31T13:32:05.114Z,13.90
2022-10-31T13:34:43.450Z,13.90
2022-10-31T13:37:16.102Z,13.90
2022-10-31T13:40:06.382Z,13.90
2022-10-31T13:43:07.064Z,13.90
2022-10-31T13:45:34.157Z,13.80
2022-10-31T13:48:16.063Z,13.70
2022-10-31T13:50:44.589Z,13.60
2022-10-31T13:53:19.594Z,13.50
2022-10-31T13:56:09.337Z,13.40
2022-10-31T13:58:37.139Z,13.40
2022-10-31T14:01:23.213Z,13.30
2022-10-31T14:04:14.783Z,13.20
2022-10-31T14:07:18.308Z,13.10
2022-10-31T14:10:07.489Z,13.10
2022-10-31T14:12:42.514Z,13.10
2022-10-31T14:15:25.724Z,13.00
2022-10-31T14:18:06.946Z,13.10
2022-10-31T14:20:34.173Z,13.00
2022-10-31T14:23:34.531Z,13.00
2022-10-31T14:26:32.201Z,13.00
2022-10-31T14:29:00.604Z,12.90
2022-10-31T14:31:40.701Z,12.80
2022-10-31T14:34:32.247Z,12.70
2022-10-31T14:37:23.750Z,12.70
2022-10-31T14:40:24.097Z,12.60
2022-10-31T14:43:00.526Z,12.50
2022-10-31T14:46:12.919Z,12.40
2022-10-31T14:48:42.988Z,12.30
2022-10-31T14:51:22.399Z,12.20
2022-10-31T14:53:53.504Z,12.20
2022-10-31T14:56:28.148Z,12.20
2022-10-31T14:58:58.547Z,12.20
2022-10-31T15:01:27.798Z,12.20
2022-10-31T15:06:53.743Z,12.10
2022-10-31T15:09:31.026Z,12.00
2022-10-31T15:12:17.911Z,12.00
2022-10-31T15:14:44.845Z,11.90
2022-10-31T15:17:12.636Z,11.80
2022-10-31T15:19:39.882Z,11.80
2022-10-31T15:22:10.597Z,11.80
2022-10-31T15:24:40.470Z,11.70
2022-10-31T15:27:15.979Z,11.80
2022-10-31T15:29:51.331Z,11.70
2022-10-31T15:32:26.877Z,11.70
2022-10-31T15:34:55.297Z,11.70
2022-10-31T15:37:25.247Z,11.70
2022-10-31T15:39:52.461Z,11.70
2022-10-31T15:42:33.618Z,11.60
2022-10-31T15:45:17.084Z,11.50
2022-10-31T15:48:18.111Z,11.40
2022-10-31T15:50:55.364Z,11.20
2022-10-31T15:53:35.269Z,11.10
2022-10-31T15:56:06.908Z,11.00
2022-10-31T15:58:47.327Z,10.90
2022-10-31T16:01:23.719Z,10.70
2022-10-31T16:04:11.009Z,10.60
2022-10-31T16:06:38.376Z,10.40
2022-10-31T16:09:24.167Z,10.40
2022-10-31T16:11:52.058Z,10.30
2022-10-31T16:14:25.708Z,10.40
2022-10-31T16:16:55.751Z,10.30
2022-10-31T16:19:32.329Z,10.30
2022-10-31T16:22:13.182Z,10.20
2022-10-31T16:24:50.594Z,10.10
2022-10-31T16:27:28.068Z,10.10
2022-10-31T16:29:57.276Z,10.00
2022-10-31T16:32:36.407Z,9.90
2022-10-31T16:35:24.294Z,9.80
2022-10-31T16:37:51.365Z,9.80
2022-10-31T16:40:18.811Z,9.70
2022-10-31T16:42:46.652Z,9.80
2022-10-31T16:45:33.943Z,9.80
2022-10-31T16:48:06.916Z,9.80
2022-10-31T16:50:34.084Z,9.70
2022-10-31T16:53:13.346Z,9.70
2022-10-31T16:55:50.445Z,9.70
2022-10-31T16:58:24.562Z,9.70
2022-10-31T17:00:52.742Z,9.70
2022-10-31T17:03:19.921Z,9.60
2022-10-31T17:05:46.893Z,9.60
2022-10-31T17:08:13.765Z,9.60
2022-10-31T17:10:42.179Z,9.50
2022-10-31T17:13:15.517Z,9.50
2022-10-31T17:15:46.798Z,9.40
2022-10-31T17:18:19.604Z,9.40
2022-10-31T17:20:49.773Z,9.40
2022-10-31T17:23:17.948Z,9.40
2022-10-31T17:25:44.673Z,9.40
2022-10-31T17:28:13.923Z,9.30
2022-10-31T17:30:42.250Z,9.20
2022-10-31T17:33:15.210Z,9.10
2022-10-31T17:35:45.587Z,9.10
2022-10-31T17:38:13.036Z,9.00
2022-10-31T17:40:42.398Z,8.90
2022-10-31T17:43:10.785Z,8.80
2022-10-31T17:45:40.375Z,8.80
2022-10-31T17:48:08.130Z,8.80
2022-10-31T17:50:35.493Z,8.70
2022-10-31T17:53:03.406Z,8.70
2022-10-31T17:55:34.470Z,8.70
2022-10-31T17:58:04.688Z,8.70
2022-10-31T18:00:33.579Z,8.80
2022-10-31T18:03:03.697Z,8.80
2022-10-31T18:05:31.395Z,8.80
2022-10-31T18:08:02.538Z,8.80
2022-10-31T18:10:31.018Z,8.70
2022-10-31T18:12:58.341Z,8.70
2022-10-31T18:15:25.493Z,8.70
2022-10-31T18:17:52.316Z,8.70
2022-10-31T18:20:19.593Z,8.60
2022-10-31T18:22:47.159Z,8.60
2022-10-31T18:25:13.956Z,8.60
2022-10-31T18:27:41.052Z,8.60
2022-10-31T18:30:08.664Z,8.60
2022-10-31T18:32:36.427Z,8.60
2022-10-31T18:35:03.452Z,8.60
2022-10-31T18:37:30.421Z,8.70
2022-10-31T18:39:57.227Z,8.70
2022-10-31T18:42:24.035Z,8.70
2022-10-31T18:44:50.963Z,8.60
2022-10-31T18:47:19.222Z,8.60
2022-10-31T18:49:46.198Z,8.50
2022-10-31T18:52:13.055Z,8.40
2022-10-31T18:54:39.996Z,8.40
2022-10-31T18:57:07.019Z,8.30
2022-10-31T18:59:33.896Z,8.30
2022-10-31T19:02:00.817Z,8.30
2022-10-31T19:04:27.934Z,8.30
2022-10-31T19:06:55.581Z,8.30
2022-10-31T19:09:24.191Z,8.30
2022-10-31T19:11:51.152Z,8.30
2022-10-31T19:14:18.122Z,8.30
2022-10-31T19:16:45.009Z,8.30
2022-10-31T19:19:11.956Z,8.30
2022-10-31T19:21:38.892Z,8.30
2022-10-31T19:24:06.058Z,8.40
2022-10-31T19:26:34.862Z,8.40
2022-10-31T19:29:01.713Z,8.40
2022-10-31T19:31:29.058Z,8.30
2022-10-31T19:33:56.085Z,8.30
2022-10-31T19:36:23.864Z,8.30
2022-10-31T19:38:52.420Z,8.30
2022-10-31T19:41:20.754Z,8.30
2022-10-31T19:43:48.201Z,8.20
2022-10-31T19:46:27.765Z,8.10
2022-10-31T19:49:01.047Z,8.00
2022-10-31T19:51:28.251Z,8.10
2022-10-31T19:53:55.330Z,8.10
2022-10-31T19:56:24.704Z,8.10
2022-10-31T19:58:51.991Z,8.10
2022-10-31T20:01:21.697Z,8.10
2022-10-31T20:03:49.398Z,8.00
2022-10-31T20:06:26.791Z,8.00
2022-10-31T20:08:55.760Z,7.90
2022-10-31T20:11:24.308Z,7.80
2022-10-31T20:13:51.730Z,7.70
2022-10-31T20:16:18.844Z,7.60
2022-10-31T20:18:47.048Z,7.50
2022-10-31T20:21:17.330Z,7.50
2022-10-31T20:23:45.498Z,7.40
2022-10-31T20:26:14.874Z,7.30
2022-10-31T20:28:43.650Z,7.30
2022-10-31T20:31:14.153Z,7.30
2022-10-31T20:33:41.546Z,7.30
2022-10-31T20:36:09.535Z,7.20
2022-10-31T20:38:41.416Z,7.20
2022-10-31T20:41:10.090Z,7.20
2022-10-31T20:43:37.342Z,7.20
2022-10-31T20:46:10.687Z,7.20
2022-10-31T20:48:37.720Z,7.20
2022-10-31T20:51:07.351Z,7.10
2022-10-31T20:53:34.785Z,7.00
2022-10-31T20:56:14.050Z,7.00
2022-10-31T20:58:42.609Z,7.00
2022-10-31T21:01:14.768Z,6.90
2022-10-31T21:03:42.374Z,6.80
2022-10-31T21:06:10.410Z,6.80
2022-10-31T21:08:37.973Z,6.70
2022-10-31T21:11:11.260Z,6.70
2022-10-31T21:13:40.915Z,6.70
2022-10-31T21:16:13.242Z,6.60
2022-10-31T21:18:41.870Z,6.60
2022-10-31T21:21:18.441Z,6.60
2022-10-31T21:23:45.860Z,6.60
2022-10-31T21:26:18.377Z,6.50
2022-10-31T21:28:45.400Z,6.50
2022-10-31T21:31:14.499Z,6.40
2022-10-31T21:33:41.891Z,6.40
2022-10-31T21:36:09.075Z,6.40
2022-10-31T21:38:36.672Z,6.30
2022-10-31T21:41:12.706Z,6.20
2022-10-31T21:43:42.224Z,6.20
2022-10-31T21:46:14.615Z,6.20
2022-10-31T21:48:43.449Z,6.20
2022-10-31T21:51:12.973Z,6.20
2022-10-31T21:53:58.403Z,6.10
2022-10-31T21:56:25.871Z,6.10
2022-10-31T21:58:53.636Z,6.10
2022-10-31T22:01:21.739Z,6.10
2022-10-31T22:03:49.057Z,6.20
2022-10-31T22:06:16.659Z,6.20
2022-10-31T22:08:43.828Z,6.20
2022-10-31T22:11:15.917Z,6.30
2022-10-31T22:13:44.986Z,6.20
2022-10-31T22:16:15.205Z,6.10
2022-10-31T22:18:42.814Z,6.10
2022-10-31T22:21:11.445Z,6.10
2022-10-31T22:23:39.164Z,6.00
2022-10-31T22:26:14.511Z,6.00
2022-10-31T22:28:43.268Z,6.00
2022-10-31T22:33:46.004Z,5.80
2022-10-31T22:36:16.976Z,5.70
2022-10-31T22:38:44.629Z,5.60
2022-10-31T22:41:15.858Z,5.60
2022-10-31T22:43:42.963Z,5.60
2022-10-31T22:46:13.750Z,5.50
2022-10-31T22:48:55.775Z,5.50
2022-10-31T22:51:26.215Z,5.50
2022-10-31T22:53:56.586Z,5.50
2022-10-31T22:56:25.627Z,5.50
2022-10-31T22:58:52.883Z,5.50
2022-10-31T23:01:22.325Z,5.50
2022-10-31T23:03:50.402Z,5.50
2022-10-31T23:06:20.057Z,5.50
2022-10-31T23:08:47.991Z,5.50
2022-10-31T23:11:18.562Z,5.50
2022-10-31T23:14:06.029Z,5.50
2022-10-31T23:16:33.399Z,5.40
2022-10-31T23:19:00.315Z,5.40
2022-10-31T23:21:53.944Z,5.30
2022-10-31T23:24:25.811Z,5.30
2022-10-31T23:27:09.222Z,5.20
2022-10-31T23:29:39.204Z,5.20
2022-10-31T23:32:09.838Z,5.10
2022-10-31T23:34:36.729Z,5.10
2022-10-31T23:37:03.752Z,5.10
2022-10-31T23:39:31.169Z,5.10
2022-10-31T23:41:58.199Z,5.10
2022-10-31T23:44:25.244Z,5.10
2022-10-31T23:46:52.084Z,5.10
2022-10-31T23:49:19.010Z,5.10
2022-10-31T23:51:45.940Z,5.10
2022-10-31T23:54:13.134Z,5.00
2022-10-31T23:56:40.001Z,5.00
2022-10-31T23:59:07.445Z,5.00
